Time;durP1;ratioP1;P1;durP2;ratioP2;P2;SDS_P1;SDS_P2;PMS_P1;PMS_P2;Temp;Humidity;BMP_temperature;BMP_pressure;BME280_temperature;BME280_humidity;BME280_pressure;Samples;Min_cycle;Max_cycle;Signal;HPM_P1;HPM_P2
2023/11/23 00:01:06;;;;;;;27.38;12.88;;;6.70;1.00;;;;;;5052866;28;20048;-73
2023/11/23 00:03:31;;;;;;;25.70;12.27;;;6.70;1.00;;;;;;5053211;28;20547;-73
2023/11/23 00:05:57;;;;;;;26.55;13.40;;;6.70;1.00;;;;;;5053099;28;20029;-73
2023/11/23 00:08:22;;;;;;;25.98;13.52;;;6.80;1.00;;;;;;5053207;28;20040;-73
2023/11/23 00:10:49;;;;;;;30.13;13.23;;;6.80;1.00;;;;;;5052659;28;20021;-73
2023/11/23 00:13:15;;;;;;;26.30;13.20;;;6.80;4.10;;;;;;5052729;28;20017;-73
2023/11/23 00:15:40;;;;;;;25.48;13.23;;;6.80;8.60;;;;;;5052746;28;20101;-73
2023/11/23 00:18:06;;;;;;;25.52;12.55;;;6.80;10.20;;;;;;5053299;28;20037;-73
2023/11/23 00:20:31;;;;;;;29.05;12.80;;;6.80;14.40;;;;;;5053035;28;20490;-73
2023/11/23 00:22:57;;;;;;;26.00;13.93;;;6.90;13.80;;;;;;5052964;28;20120;-74
2023/11/23 00:25:24;;;;;;;26.15;13.50;;;6.90;15.00;;;;;;5052928;28;20079;-73
2023/11/23 00:27:49;;;;;;;26.42;13.27;;;6.90;14.10;;;;;;5053025;28;20111;-73
2023/11/23 00:30:15;;;;;;;24.52;13.55;;;6.90;16.70;;;;;;5052759;28;20037;-73
2023/11/23 00:32:40;;;;;;;30.25;14.25;;;6.90;22.50;;;;;;5053044;28;20021;-73
2023/11/23 00:35:06;;;;;;;29.20;13.73;;;6.90;23.90;;;;;;5052933;28;20025;-73
2023/11/23 00:37:32;;;;;;;26.05;13.45;;;6.80;29.70;;;;;;5052841;28;20094;-73
2023/11/23 00:39:58;;;;;;;25.65;13.40;;;6.80;39.60;;;;;;5052883;28;20406;-73
2023/11/23 00:42:24;;;;;;;24.75;13.52;;;6.80;40.80;;;;;;5052476;28;20025;-73
2023/11/23 00:44:50;;;;;;;29.13;13.80;;;6.80;44.30;;;;;;5052532;28;20021;-73
2023/11/23 00:47:16;;;;;;;26.73;13.95;;;6.80;50.00;;;;;;5052758;28;20037;-73
2023/11/23 00:49:41;;;;;;;27.80;13.70;;;6.90;51.10;;;;;;5055724;28;20399;-73
2023/11/23 00:52:07;;;;;;;29.73;13.57;;;6.90;53.80;;;;;;5056367;28;20051;-74
2023/11/23 00:54:37;;;;;;;31.35;15.07;;;6.80;62.00;;;;;;5056441;28;20029;-73
2023/11/23 00:57:05;;;;;;;28.15;14.80;;;6.90;66.60;;;;;;5056756;28;20017;-73
2023/11/23 00:59:31;;;;;;;32.55;14.63;;;6.80;68.60;;;;;;5056462;28;20493;-73
2023/11/23 01:01:57;;;;;;;26.92;14.13;;;6.80;72.90;;;;;;5056446;28;20033;-73
2023/11/23 01:04:22;;;;;;;28.27;14.70;;;6.80;82.80;;;;;;5055998;28;20028;-73
2023/11/23 01:06:48;;;;;;;35.17;14.52;;;6.90;91.50;;;;;;5056444;28;20033;-73
2023/11/23 01:09:13;;;;;;;30.52;15.00;;;6.90;95.20;;;;;;5055865;28;20029;-73
2023/11/23 01:11:39;;;;;;;30.05;15.38;;;6.80;97.00;;;;;;5056332;28;20060;-73
2023/11/23 01:14:08;;;;;;;31.50;15.20;;;6.80;99.90;;;;;;5056385;28;20057;-73
2023/11/23 01:16:34;;;;;;;33.92;14.95;;;6.80;99.90;;;;;;5056064;28;20465;-73
2023/11/23 01:19:00;;;;;;;28.00;14.65;;;6.80;99.90;;;;;;5056198;28;20021;-73
2023/11/23 01:21:25;;;;;;;30.80;15.27;;;6.80;99.90;;;;;;5055790;28;20028;-73
2023/11/23 01:23:51;;;;;;;30.95;15.95;;;6.80;99.90;;;;;;5056038;28;20032;-73
2023/11/23 01:26:17;;;;;;;28.98;14.60;;;6.80;99.90;;;;;;5056035;28;20103;-73
2023/11/23 01:28:42;;;;;;;33.05;17.50;;;6.80;99.90;;;;;;5055972;28;20070;-73
2023/11/23 01:31:09;;;;;;;37.47;18.38;;;6.70;99.90;;;;;;5055662;28;20033;-73
2023/11/23 01:33:34;;;;;;;40.63;17.15;;;6.70;99.90;;;;;;5055828;28;20021;-73
2023/11/23 01:36:00;;;;;;;34.97;17.60;;;6.70;99.90;;;;;;5055278;28;20032;-73
2023/11/23 01:38:26;;;;;;;37.03;17.95;;;6.60;99.90;;;;;;5055653;28;20040;-73
2023/11/23 01:40:54;;;;;;;36.85;18.00;;;6.60;99.90;;;;;;5055647;28;20032;-73
2023/11/23 01:43:20;;;;;;;40.15;18.00;;;6.60;99.90;;;;;;5055718;28;20029;-73
2023/11/23 01:45:46;;;;;;;37.42;18.13;;;6.50;99.90;;;;;;5055595;28;20033;-73
2023/11/23 01:48:13;;;;;;;38.88;19.17;;;6.50;99.90;;;;;;5055089;28;20080;-73
2023/11/23 01:50:40;;;;;;;43.33;20.92;;;6.50;99.90;;;;;;5055378;28;20059;-73
2023/11/23 01:53:07;;;;;;;44.72;21.48;;;6.50;99.90;;;;;;5055435;28;20025;-73
2023/11/23 01:55:33;;;;;;;43.20;22.17;;;6.50;99.90;;;;;;5055257;28;20028;-73
2023/11/23 01:58:02;;;;;;;44.63;20.38;;;6.40;99.90;;;;;;5055413;28;20025;-74
2023/11/23 02:00:29;;;;;;;45.67;21.63;;;6.50;99.90;;;;;;5054909;28;20032;-73
2023/11/23 02:02:55;;;;;;;41.92;20.60;;;6.50;99.90;;;;;;5055223;28;20497;-73
2023/11/23 02:05:23;;;;;;;46.72;21.40;;;6.50;99.90;;;;;;5055125;28;20079;-73
2023/11/23 02:07:49;;;;;;;44.58;20.10;;;6.50;99.90;;;;;;5055154;28;20025;-73
2023/11/23 02:10:15;;;;;;;45.50;22.13;;;6.50;99.90;;;;;;5054964;28;20082;-73
2023/11/23 02:12:40;;;;;;;49.03;22.00;;;6.50;99.90;;;;;;5054887;28;20025;-73
2023/11/23 02:15:07;;;;;;;47.38;22.30;;;6.40;99.90;;;;;;5054678;28;20017;-73
2023/11/23 02:17:34;;;;;;;51.53;23.70;;;6.40;99.90;;;;;;5054926;28;20471;-73
2023/11/23 02:19:59;;;;;;;47.88;23.48;;;6.40;99.90;;;;;;5055031;28;20316;-73
2023/11/23 02:22:26;;;;;;;50.92;24.98;;;6.40;99.90;;;;;;5054511;28;20505;-74
2023/11/23 02:24:52;;;;;;;47.95;23.23;;;6.40;99.90;;;;;;5054915;28;20033;-73
2023/11/23 02:27:18;;;;;;;52.85;24.08;;;6.40;99.90;;;;;;5054913;28;20036;-73
2023/11/23 02:29:43;;;;;;;51.47;24.45;;;6.40;99.90;;;;;;5054681;28;20021;-73
2023/11/23 02:32:09;;;;;;;51.45;24.70;;;6.40;99.90;;;;;;5054849;28;20033;-73
2023/11/23 02:34:36;;;;;;;53.90;24.55;;;6.40;99.90;;;;;;5054761;28;20021;-73
2023/11/23 02:37:02;;;;;;;54.72;25.08;;;6.50;99.90;;;;;;5054668;28;20124;-73
2023/11/23 02:39:29;;;;;;;50.65;24.88;;;6.40;99.90;;;;;;5054197;28;20083;-73
2023/11/23 02:41:55;;;;;;;49.80;25.73;;;6.50;99.90;;;;;;5054402;28;20509;-73
2023/11/23 02:44:21;;;;;;;52.42;25.35;;;6.50;99.90;;;;;;5054104;28;20056;-73
2023/11/23 02:46:47;;;;;;;50.90;25.98;;;6.50;99.90;;;;;;5054445;28;20083;-73
2023/11/23 02:49:13;;;;;;;51.72;25.80;;;6.50;99.90;;;;;;5053854;28;20040;-73
2023/11/23 02:51:39;;;;;;;61.35;26.60;;;6.50;99.90;;;;;;5054067;28;20020;-73
2023/11/23 02:54:06;;;;;;;50.95;25.80;;;6.50;99.90;;;;;;5053876;28;20605;-73
2023/11/23 02:56:31;;;;;;;60.42;28.48;;;6.60;99.90;;;;;;5054169;28;20079;-73
2023/11/23 02:58:57;;;;;;;58.00;28.25;;;6.50;99.90;;;;;;5054162;28;20029;-73
2023/11/23 03:01:23;;;;;;;60.35;27.92;;;6.50;99.90;;;;;;5053855;28;20029;-73
2023/11/23 03:03:49;;;;;;;64.10;28.27;;;6.50;99.90;;;;;;5054079;28;20096;-73
2023/11/23 03:06:15;;;;;;;60.38;28.10;;;6.60;99.90;;;;;;5053735;28;20033;-73
2023/11/23 03:08:40;;;;;;;60.47;29.42;;;6.60;99.90;;;;;;5054001;28;20447;-73
2023/11/23 03:11:06;;;;;;;60.58;30.48;;;6.60;99.90;;;;;;5053016;28;20087;-73
2023/11/23 03:13:32;;;;;;;63.85;31.08;;;6.60;99.90;;;;;;5053776;28;20043;-73
2023/11/23 03:15:57;;;;;;;65.65;29.90;;;6.60;99.90;;;;;;5053522;28;20071;-73
2023/11/23 03:18:23;;;;;;;60.63;28.98;;;6.70;99.90;;;;;;5053825;28;20029;-73
2023/11/23 03:20:48;;;;;;;59.42;29.40;;;6.70;99.90;;;;;;5053747;28;20055;-72
2023/11/23 03:23:14;;;;;;;61.53;29.90;;;6.70;99.90;;;;;;5053670;28;20039;-73
2023/11/23 03:25:39;;;;;;;65.07;32.25;;;6.70;99.90;;;;;;5053302;28;20128;-73
2023/11/23 03:28:07;;;;;;;64.55;30.77;;;6.70;99.90;;;;;;5053733;28;20029;-73
2023/11/23 03:30:33;;;;;;;63.85;30.50;;;6.70;99.90;;;;;;5053383;28;20076;-73
2023/11/23 03:32:59;;;;;;;67.05;30.90;;;6.80;99.90;;;;;;5053532;28;20543;-73
2023/11/23 03:35:25;;;;;;;72.13;32.10;;;6.80;99.90;;;;;;5053521;28;20112;-73
2023/11/23 03:37:50;;;;;;;66.10;32.47;;;6.80;99.90;;;;;;5053650;28;20029;-73
2023/11/23 03:40:16;;;;;;;72.55;34.60;;;6.80;99.90;;;;;;5053562;28;20502;-73
2023/11/23 03:42:41;;;;;;;72.35;33.15;;;6.80;99.90;;;;;;5052976;28;20096;-73
2023/11/23 03:45:07;;;;;;;72.75;34.20;;;6.80;99.90;;;;;;5053654;28;20025;-73
2023/11/23 03:47:33;;;;;;;72.93;34.28;;;6.90;99.90;;;;;;5052872;28;20035;-73
2023/11/23 03:49:59;;;;;;;72.85;33.80;;;6.90;99.90;;;;;;5052900;28;20091;-73
2023/11/23 03:52:24;;;;;;;76.07;34.55;;;6.90;99.90;;;;;;5052952;28;20017;-73
2023/11/23 03:54:50;;;;;;;70.57;33.30;;;6.90;99.90;;;;;;5053253;28;20035;-73
2023/11/23 03:57:16;;;;;;;71.72;33.20;;;6.90;99.90;;;;;;5052856;28;20047;-73
2023/11/23 03:59:41;;;;;;;74.35;35.08;;;6.90;99.90;;;;;;5053402;28;20037;-73
2023/11/23 04:02:07;;;;;;;74.38;36.15;;;7.00;99.90;;;;;;5052956;28;20060;-72
2023/11/23 04:04:32;;;;;;;70.38;34.17;;;7.00;99.90;;;;;;5053173;28;20033;-73
2023/11/23 04:06:58;;;;;;;74.70;36.00;;;7.00;99.90;;;;;;5053199;28;20088;-73
2023/11/23 04:09:24;;;;;;;79.82;35.88;;;7.00;99.90;;;;;;5053036;28;20029;-73
2023/11/23 04:11:50;;;;;;;76.25;37.80;;;7.00;99.90;;;;;;5053173;28;20035;-73
2023/11/23 04:14:15;;;;;;;81.03;36.88;;;7.10;99.90;;;;;;5053167;28;20119;-73
2023/11/23 04:16:41;;;;;;;83.03;38.38;;;7.00;99.90;;;;;;5053192;28;20032;-73
2023/11/23 04:19:07;;;;;;;75.43;36.03;;;7.10;99.90;;;;;;5052836;28;20025;-73
2023/11/23 04:21:32;;;;;;;84.32;39.78;;;7.10;99.90;;;;;;5053232;28;20025;-73
2023/11/23 04:23:58;;;;;;;76.97;37.25;;;7.10;99.90;;;;;;5057242;28;20079;-73
2023/11/23 04:26:23;;;;;;;83.50;38.83;;;7.20;99.90;;;;;;5057073;28;20100;-73
2023/11/23 04:28:50;;;;;;;83.25;39.65;;;7.20;99.90;;;;;;5057050;28;20029;-73
2023/11/23 04:31:16;;;;;;;85.43;40.58;;;7.30;99.90;;;;;;5056694;28;20020;-74
2023/11/23 04:33:41;;;;;;;84.07;39.95;;;7.30;99.90;;;;;;5056647;28;20059;-73
2023/11/23 04:36:07;;;;;;;84.07;39.83;;;7.40;99.90;;;;;;5057027;28;20054;-73
2023/11/23 04:38:33;;;;;;;91.90;43.30;;;7.40;99.90;;;;;;5056825;28;20048;-72
2023/11/23 04:40:58;;;;;;;98.38;43.08;;;7.50;99.90;;;;;;5056858;28;20112;-72
2023/11/23 04:43:24;;;;;;;93.53;44.65;;;7.50;99.90;;;;;;5056387;28;20028;-73
2023/11/23 04:45:49;;;;;;;90.05;43.00;;;7.60;99.90;;;;;;5056562;28;20028;-73
2023/11/23 04:48:15;;;;;;;94.43;44.08;;;7.60;99.90;;;;;;5056507;28;20410;-73
2023/11/23 04:50:41;;;;;;;100.32;47.58;;;7.60;99.90;;;;;;5056943;28;20032;-72
2023/11/23 04:53:07;;;;;;;99.28;47.17;;;7.60;99.90;;;;;;5056596;28;20382;-73
2023/11/23 04:55:33;;;;;;;97.68;47.30;;;7.70;99.90;;;;;;5056449;28;20021;-72
2023/11/23 04:57:58;;;;;;;113.20;50.80;;;7.80;99.90;;;;;;5056072;28;20104;-73
2023/11/23 05:00:24;;;;;;;108.75;50.28;;;7.80;99.90;;;;;;5056603;28;20037;-73
2023/11/23 05:02:51;;;;;;;105.47;49.38;;;7.80;99.90;;;;;;5056452;28;20028;-74
2023/11/23 05:05:17;;;;;;;112.35;51.88;;;7.90;99.90;;;;;;5056417;28;20108;-73
2023/11/23 05:07:42;;;;;;;114.60;52.72;;;7.90;99.90;;;;;;5056418;28;20064;-74
2023/11/23 05:10:09;;;;;;;108.00;51.25;;;7.90;99.90;;;;;;5055968;28;20064;-73
2023/11/23 05:12:35;;;;;;;114.78;53.45;;;8.00;99.90;;;;;;5056218;28;20031;-73
2023/11/23 05:15:01;;;;;;;118.38;54.08;;;8.00;99.90;;;;;;5055880;28;20029;-73
2023/11/23 05:17:27;;;;;;;115.45;51.55;;;8.00;99.90;;;;;;5055738;28;20074;-73
2023/11/23 05:19:52;;;;;;;118.78;54.65;;;8.00;99.90;;;;;;5056047;28;20037;-73
2023/11/23 05:22:18;;;;;;;121.93;53.65;;;8.00;99.90;;;;;;5055890;28;20482;-73
2023/11/23 05:24:43;;;;;;;121.00;55.00;;;8.10;99.90;;;;;;5055640;28;20025;-73
2023/11/23 05:27:09;;;;;;;112.22;51.95;;;8.10;99.90;;;;;;5056112;28;20041;-73
2023/11/23 05:29:36;;;;;;;111.63;52.63;;;8.10;99.90;;;;;;5055737;28;20383;-73
2023/11/23 05:32:01;;;;;;;119.90;52.03;;;8.20;99.90;;;;;;5055862;28;20021;-73
2023/11/23 05:34:27;;;;;;;118.95;56.50;;;8.10;99.90;;;;;;5054591;28;20028;-73
2023/11/23 05:36:52;;;;;;;109.13;52.72;;;8.10;99.90;;;;;;5055813;28;20112;-73
2023/11/23 05:39:18;;;;;;;106.47;50.85;;;8.20;99.90;;;;;;5055708;28;20478;-73
2023/11/23 05:41:43;;;;;;;108.25;52.45;;;8.20;99.90;;;;;;5055703;28;20035;-72
2023/11/23 05:44:09;;;;;;;112.35;51.65;;;8.30;99.90;;;;;;5055829;28;20116;-74
2023/11/23 05:46:35;;;;;;;104.80;50.42;;;8.30;99.90;;;;;;5055569;28;20025;-73
2023/11/23 05:49:01;;;;;;;105.30;52.13;;;8.30;99.90;;;;;;5055250;28;20090;-73
2023/11/23 05:51:28;;;;;;;104.60;52.33;;;8.30;99.90;;;;;;5055329;28;20029;-73
2023/11/23 05:53:53;;;;;;;100.57;50.55;;;8.40;99.90;;;;;;5055059;28;20433;-73
2023/11/23 05:56:19;;;;;;;104.75;51.13;;;8.30;99.90;;;;;;5055409;28;20021;-73
2023/11/23 05:58:44;;;;;;;113.45;52.20;;;8.40;99.90;;;;;;5055507;28;20505;-73
2023/11/23 06:01:10;;;;;;;109.60;51.58;;;8.40;99.90;;;;;;5055385;28;20033;-73
2023/11/23 06:03:37;;;;;;;98.22;49.65;;;8.40;99.90;;;;;;5054844;28;20025;-73
2023/11/23 06:06:03;;;;;;;108.40;52.38;;;8.40;99.90;;;;;;5055109;28;20513;-73
2023/11/23 06:08:29;;;;;;;107.00;51.08;;;8.50;99.90;;;;;;5055183;28;20110;-73
2023/11/23 06:10:54;;;;;;;106.10;53.65;;;8.50;99.90;;;;;;5054944;28;20478;-73
2023/11/23 06:13:20;;;;;;;100.30;51.70;;;8.50;99.90;;;;;;5054749;28;20017;-73
2023/11/23 06:15:45;;;;;;;98.50;49.53;;;8.50;99.90;;;;;;5054585;28;20021;-73
2023/11/23 06:18:11;;;;;;;109.85;51.78;;;8.50;99.90;;;;;;5054731;28;20108;-74
2023/11/23 06:20:36;;;;;;;105.47;51.47;;;8.60;99.90;;;;;;5054430;28;20079;-73
2023/11/23 06:23:02;;;;;;;105.63;50.72;;;8.60;99.90;;;;;;5054877;28;20039;-73
2023/11/23 06:25:27;;;;;;;109.18;52.88;;;8.60;99.90;;;;;;5054858;28;20028;-73
2023/11/23 06:27:53;;;;;;;108.95;53.22;;;8.60;99.90;;;;;;5054851;28;20036;-73
2023/11/23 06:30:19;;;;;;;107.22;54.28;;;8.60;99.90;;;;;;5054676;28;20021;-73
2023/11/23 06:32:45;;;;;;;101.32;52.97;;;8.70;99.90;;;;;;5054401;28;20390;-73
2023/11/23 06:35:11;;;;;;;101.35;52.08;;;8.70;99.90;;;;;;5054689;28;20023;-73
2023/11/23 06:37:36;;;;;;;104.47;52.35;;;8.80;99.90;;;;;;5054542;28;20111;-73
2023/11/23 06:40:03;;;;;;;108.13;52.90;;;8.80;99.90;;;;;;5054545;28;20037;-73
2023/11/23 06:42:28;;;;;;;103.47;53.28;;;8.80;99.90;;;;;;5054111;28;20025;-73
2023/11/23 06:44:54;;;;;;;99.47;53.17;;;8.90;99.90;;;;;;5054389;28;20040;-73
2023/11/23 06:47:19;;;;;;;106.07;53.95;;;8.90;99.90;;;;;;5054468;28;20029;-73
2023/11/23 06:49:45;;;;;;;106.28;53.47;;;8.90;99.90;;;;;;5053789;28;20144;-73
2023/11/23 06:52:11;;;;;;;109.30;55.22;;;8.90;99.90;;;;;;5054395;28;20029;-73
2023/11/23 06:54:36;;;;;;;103.82;53.58;;;8.90;99.90;;;;;;5049751;28;20037;-73
2023/11/23 06:57:02;;;;;;;104.85;54.92;;;8.90;99.90;;;;;;5047221;28;20025;-74
2023/11/23 06:59:29;;;;;;;95.70;51.15;;;9.00;99.90;;;;;;5040474;28;20029;-73
2023/11/23 07:01:55;;;;;;;100.05;53.17;;;9.10;99.90;;;;;;5040125;28;20116;-73
2023/11/23 07:04:21;;;;;;;103.80;55.25;;;9.10;99.90;;;;;;5046549;28;20057;-74
2023/11/23 07:06:46;;;;;;;96.60;53.20;;;9.10;99.90;;;;;;5037201;28;20059;-74
2023/11/23 07:09:13;;;;;;;94.40;52.33;;;9.10;99.90;;;;;;5045246;28;20550;-73
2023/11/23 07:11:40;;;;;;;103.35;52.90;;;9.10;99.90;;;;;;5039081;28;20055;-73
2023/11/23 07:14:06;;;;;;;96.57;53.13;;;9.10;99.90;;;;;;5051464;28;20033;-73
2023/11/23 07:16:31;;;;;;;100.93;53.08;;;9.10;99.90;;;;;;5050751;28;20036;-73
2023/11/23 07:18:58;;;;;;;96.00;51.13;;;9.10;99.90;;;;;;5050794;28;20032;-73
2023/11/23 07:21:23;;;;;;;97.85;52.65;;;9.10;99.90;;;;;;5049118;28;20021;-74
2023/11/23 07:23:49;;;;;;;97.28;51.78;;;9.10;99.90;;;;;;5050872;28;20074;-73
2023/11/23 07:26:15;;;;;;;95.28;52.60;;;9.20;99.90;;;;;;5051226;28;20052;-73
2023/11/23 07:28:40;;;;;;;90.35;51.92;;;9.20;99.90;;;;;;5051573;28;20553;-73
2023/11/23 07:31:09;;;;;;;90.38;51.38;;;9.20;99.90;;;;;;5049103;28;20032;-74
2023/11/23 07:33:35;;;;;;;95.65;51.90;;;9.20;99.90;;;;;;5051228;28;20028;-73
2023/11/23 07:36:03;;;;;;;94.93;51.05;;;9.20;99.90;;;;;;5052737;28;20461;-73
2023/11/23 07:38:29;;;;;;;96.15;51.50;;;9.20;99.90;;;;;;5051331;28;20083;-74
2023/11/23 07:40:56;;;;;;;90.15;49.17;;;9.30;99.90;;;;;;5047269;28;20044;-74
2023/11/23 07:43:23;;;;;;;92.32;48.85;;;9.30;99.90;;;;;;5050799;28;20440;-73
2023/11/23 07:45:49;;;;;;;93.78;50.40;;;9.20;99.90;;;;;;5051076;28;20497;-74
2023/11/23 07:48:14;;;;;;;92.30;49.70;;;9.30;99.90;;;;;;5051197;28;20053;-73
2023/11/23 07:50:40;;;;;;;88.68;50.22;;;9.30;99.90;;;;;;5049069;28;20123;-74
2023/11/23 07:53:07;;;;;;;86.40;48.97;;;9.30;99.90;;;;;;5050841;28;20497;-74
2023/11/23 07:55:32;;;;;;;87.97;49.30;;;9.30;99.90;;;;;;5045723;28;20032;-73
2023/11/23 07:57:58;;;;;;;83.95;47.53;;;9.30;99.90;;;;;;5050079;28;20041;-74
2023/11/23 08:00:25;;;;;;;86.28;48.75;;;9.40;99.90;;;;;;5051614;28;20029;-73
2023/11/23 08:02:51;;;;;;;88.50;49.10;;;9.40;99.90;;;;;;5052758;28;20025;-73
2023/11/23 08:05:16;;;;;;;88.70;48.45;;;9.40;99.90;;;;;;5051940;28;20444;-73
2023/11/23 08:07:42;;;;;;;85.13;50.25;;;9.40;99.90;;;;;;5052645;28;20029;-72
2023/11/23 08:10:12;;;;;;;87.40;49.17;;;9.40;99.90;;;;;;5052755;28;20025;-73
2023/11/23 08:12:39;;;;;;;106.95;51.20;;;9.40;99.90;;;;;;5052621;28;20113;-73
2023/11/23 08:15:06;;;;;;;83.60;48.15;;;9.40;99.90;;;;;;5052428;28;20454;-73
2023/11/23 08:17:32;;;;;;;90.82;52.55;;;9.40;99.90;;;;;;5052475;28;20564;-73
2023/11/23 08:19:58;;;;;;;97.72;50.95;;;9.40;99.90;;;;;;5052949;28;20041;-73
2023/11/23 08:22:23;;;;;;;90.72;50.63;;;9.50;99.90;;;;;;5050375;28;20075;-73
2023/11/23 08:24:49;;;;;;;85.45;50.15;;;9.50;99.90;;;;;;5052799;28;20033;-74
2023/11/23 08:27:15;;;;;;;95.82;51.97;;;9.50;99.90;;;;;;5052939;28;20029;-73
2023/11/23 08:29:40;;;;;;;96.97;53.00;;;9.50;99.90;;;;;;5052150;28;20033;-74
2023/11/23 08:32:08;;;;;;;94.72;52.05;;;9.50;99.90;;;;;;5052209;28;20025;-73
2023/11/23 08:34:34;;;;;;;88.90;51.03;;;9.50;99.90;;;;;;5052505;28;20043;-74
2023/11/23 08:36:59;;;;;;;83.20;48.65;;;9.50;99.90;;;;;;5041816;28;20033;-73
2023/11/23 08:39:25;;;;;;;88.38;51.10;;;9.50;99.90;;;;;;5039818;28;20487;-73
2023/11/23 08:41:51;;;;;;;88.00;49.67;;;9.60;99.90;;;;;;5044326;28;20454;-73
2023/11/23 08:44:16;;;;;;;82.85;49.08;;;9.60;99.90;;;;;;5052477;28;20037;-74
2023/11/23 08:46:43;;;;;;;86.30;49.63;;;9.60;99.90;;;;;;5052449;28;20110;-74
2023/11/23 08:49:10;;;;;;;88.50;50.22;;;9.70;99.90;;;;;;5052144;28;20045;-73
2023/11/23 08:51:36;;;;;;;83.10;48.42;;;9.60;99.90;;;;;;5049540;28;20059;-73
2023/11/23 08:54:02;;;;;;;84.10;49.13;;;9.70;99.90;;;;;;5052743;28;20095;-73
2023/11/23 08:56:28;;;;;;;82.05;48.53;;;9.70;99.90;;;;;;5042672;28;20479;-73
2023/11/23 08:58:54;;;;;;;112.88;53.45;;;9.70;99.90;;;;;;5041428;28;20040;-73
2023/11/23 09:01:19;;;;;;;87.72;49.03;;;9.70;99.90;;;;;;5032719;28;20022;-74
2023/11/23 09:03:45;;;;;;;82.05;48.83;;;9.70;99.90;;;;;;5042963;28;20041;-74
2023/11/23 09:06:11;;;;;;;83.03;50.42;;;9.70;99.90;;;;;;5045307;28;20060;-74
2023/11/23 09:08:37;;;;;;;88.05;50.78;;;9.70;99.90;;;;;;5032788;28;20368;-74
2023/11/23 09:11:02;;;;;;;81.47;49.28;;;9.80;99.90;;;;;;5045042;28;20483;-74
2023/11/23 09:13:29;;;;;;;84.55;50.10;;;9.80;99.90;;;;;;5055528;28;20025;-74
2023/11/23 09:15:55;;;;;;;83.25;48.67;;;9.80;99.90;;;;;;5055973;28;20502;-74
2023/11/23 09:18:21;;;;;;;85.25;47.45;;;9.80;99.90;;;;;;5055776;28;20475;-74
2023/11/23 09:20:47;;;;;;;73.38;47.30;;;9.80;99.90;;;;;;5036817;28;20120;-74
2023/11/23 09:23:15;;;;;;;79.72;46.58;;;9.90;99.90;;;;;;5051645;28;20040;-74
2023/11/23 09:25:40;;;;;;;76.55;45.28;;;9.90;99.90;;;;;;5055546;28;20033;-74
2023/11/23 09:28:06;;;;;;;79.30;44.50;;;9.90;99.90;;;;;;5055780;28;20039;-74
2023/11/23 09:30:31;;;;;;;73.45;43.13;;;9.90;99.90;;;;;;5055208;28;20025;-73
2023/11/23 09:32:57;;;;;;;71.32;42.90;;;9.90;99.90;;;;;;5055031;28;20044;-74
2023/11/23 09:35:23;;;;;;;74.35;43.83;;;9.90;99.90;;;;;;5055434;28;20028;-73
2023/11/23 09:37:53;;;;;;;73.25;43.47;;;10.00;99.90;;;;;;5055484;28;20020;-74
2023/11/23 09:40:19;;;;;;;71.45;42.85;;;10.00;99.90;;;;;;5055325;28;20025;-74
2023/11/23 09:42:47;;;;;;;67.85;43.70;;;10.00;99.90;;;;;;5055566;28;20028;-74
2023/11/23 09:45:16;;;;;;;70.38;43.25;;;10.00;99.90;;;;;;5046381;28;20041;-74
2023/11/23 09:47:43;;;;;;;70.10;43.97;;;10.00;99.90;;;;;;5035112;28;20515;-74
2023/11/23 09:50:09;;;;;;;75.18;43.90;;;10.00;99.90;;;;;;5046272;28;20028;-74
2023/11/23 09:52:36;;;;;;;67.53;42.58;;;10.10;99.90;;;;;;5052134;28;20131;-74
2023/11/23 09:55:03;;;;;;;71.68;44.97;;;10.10;99.90;;;;;;5046080;28;20017;-74
2023/11/23 09:57:29;;;;;;;75.30;45.67;;;10.10;99.90;;;;;;5055412;28;20028;-74
2023/11/23 09:59:55;;;;;;;78.57;45.63;;;10.10;99.90;;;;;;5043485;28;20021;-74
2023/11/23 10:02:24;;;;;;;76.43;47.20;;;10.10;99.90;;;;;;5045869;28;20082;-74
2023/11/23 10:04:52;;;;;;;73.13;45.00;;;10.10;99.90;;;;;;5055037;28;20485;-74
2023/11/23 10:07:18;;;;;;;74.10;46.50;;;10.10;99.90;;;;;;5043755;28;20030;-74
2023/11/23 10:09:44;;;;;;;74.38;44.25;;;10.10;99.90;;;;;;5035288;28;20493;-74
2023/11/23 10:12:10;;;;;;;70.95;44.95;;;10.10;99.90;;;;;;5040906;28;20071;-74
2023/11/23 10:14:36;;;;;;;74.53;43.28;;;10.10;99.90;;;;;;5047276;28;20112;-73
2023/11/23 10:17:02;;;;;;;75.80;44.17;;;10.10;99.90;;;;;;5035184;28;20073;-74
2023/11/23 10:19:27;;;;;;;73.53;45.13;;;10.10;99.90;;;;;;5036744;28;20076;-74
2023/11/23 10:21:58;;;;;;;77.80;46.65;;;10.10;99.90;;;;;;5037779;28;20051;-73
2023/11/23 10:24:25;;;;;;;75.63;45.30;;;10.10;99.90;;;;;;5054548;28;20490;-73
2023/11/23 10:26:52;;;;;;;72.68;44.95;;;10.10;99.90;;;;;;5044525;28;20502;-74
2023/11/23 10:29:18;;;;;;;77.53;45.67;;;10.10;99.90;;;;;;5034828;28;20022;-74
2023/11/23 10:31:45;;;;;;;80.15;47.25;;;10.10;99.90;;;;;;5036642;28;20387;-74
2023/11/23 10:34:12;;;;;;;78.20;47.15;;;10.10;99.90;;;;;;5054606;28;20463;-73
2023/11/23 10:36:40;;;;;;;77.45;45.80;;;10.00;99.90;;;;;;5054600;28;20025;-73
2023/11/23 10:39:11;;;;;;;79.80;48.03;;;10.00;99.90;;;;;;5037504;28;20032;-74
2023/11/23 10:41:39;;;;;;;77.95;46.25;;;10.00;99.90;;;;;;5034778;28;20017;-73
2023/11/23 10:44:07;;;;;;;80.10;46.50;;;10.00;99.90;;;;;;5034494;28;20065;-73
2023/11/23 10:46:35;;;;;;;85.70;48.63;;;10.00;99.90;;;;;;5034416;28;20067;-74
2023/11/23 10:49:02;;;;;;;85.45;47.72;;;10.00;99.90;;;;;;5039189;28;20086;-73
2023/11/23 10:51:30;;;;;;;83.20;49.35;;;10.00;99.90;;;;;;5035844;28;20036;-73
2023/11/23 10:53:56;;;;;;;77.13;46.47;;;10.00;99.90;;;;;;5037316;28;20112;-74
2023/11/23 10:56:24;;;;;;;77.70;45.17;;;10.10;99.90;;;;;;5053673;28;20104;-74
2023/11/23 10:58:54;;;;;;;78.13;44.53;;;10.10;99.90;;;;;;5049226;28;20094;-73
2023/11/23 11:01:23;;;;;;;84.82;48.53;;;10.10;99.90;;;;;;5047388;28;20039;-74
2023/11/23 11:03:49;;;;;;;81.85;46.95;;;10.10;99.90;;;;;;5038668;28;20119;-73
2023/11/23 11:06:17;;;;;;;86.25;48.05;;;10.10;99.90;;;;;;5051056;28;20052;-73
2023/11/23 11:08:47;;;;;;;83.50;47.13;;;10.10;99.90;;;;;;5046142;28;20060;-73
2023/11/23 11:11:17;;;;;;;82.07;48.92;;;10.10;99.90;;;;;;5051425;28;20029;-73
2023/11/23 11:13:43;;;;;;;78.90;46.55;;;10.20;99.90;;;;;;5051265;28;20124;-73
2023/11/23 11:16:11;;;;;;;74.43;43.95;;;10.20;99.90;;;;;;5052847;28;20059;-73
2023/11/23 11:18:38;;;;;;;77.35;45.13;;;10.20;99.90;;;;;;5052854;28;20160;-73
2023/11/23 11:23:44;;;;;;;73.88;44.15;;;10.30;99.90;;;;;;5108650;27;20141;-72
2023/11/23 11:26:13;;;;;;;66.70;42.45;;;10.30;99.90;;;;;;5093896;28;20039;-72
2023/11/23 11:28:39;;;;;;;64.50;40.88;;;10.30;99.90;;;;;;5094463;28;20032;-73
2023/11/23 11:31:08;;;;;;;67.40;41.92;;;10.30;99.90;;;;;;5099802;28;20026;-73
2023/11/23 11:33:37;;;;;;;68.93;41.30;;;10.30;99.90;;;;;;5093981;28;20028;-72
2023/11/23 11:36:03;;;;;;;66.32;39.65;;;10.30;99.90;;;;;;5110977;28;20431;-73
2023/11/23 11:38:30;;;;;;;65.03;41.53;;;10.40;99.90;;;;;;5099913;28;20036;-73
2023/11/23 11:40:58;;;;;;;66.45;41.92;;;10.40;99.90;;;;;;5100829;28;20077;-73
2023/11/23 11:43:24;;;;;;;67.30;40.60;;;10.40;99.90;;;;;;5090105;28;20480;-73
2023/11/23 11:45:50;;;;;;;63.13;39.63;;;10.40;99.90;;;;;;5087681;28;20024;-73
2023/11/23 11:48:15;;;;;;;60.30;38.85;;;10.40;99.90;;;;;;5088035;28;20432;-74
2023/11/23 11:50:42;;;;;;;65.00;38.83;;;10.40;99.90;;;;;;5089216;28;20021;-74
2023/11/23 11:53:09;;;;;;;63.45;38.25;;;10.40;99.90;;;;;;5086352;28;20437;-75
2023/11/23 11:55:35;;;;;;;57.13;37.58;;;10.40;99.90;;;;;;5090388;28;20444;-75
2023/11/23 11:58:00;;;;;;;58.72;36.88;;;10.40;99.90;;;;;;5089396;28;20028;-74
2023/11/23 12:00:26;;;;;;;59.13;37.08;;;10.40;99.90;;;;;;5089605;28;20027;-74
2023/11/23 12:02:52;;;;;;;58.88;35.88;;;10.40;99.90;;;;;;5095587;28;20063;-74
2023/11/23 12:05:20;;;;;;;56.10;35.60;;;10.40;99.90;;;;;;5100085;28;20107;-74
2023/11/23 12:07:53;;;;;;;57.42;36.20;;;10.40;99.90;;;;;;5099769;28;20089;-74
2023/11/23 12:10:19;;;;;;;56.22;38.10;;;10.40;99.90;;;;;;5094496;28;20024;-73
2023/11/23 12:12:47;;;;;;;56.88;37.40;;;10.40;99.90;;;;;;5084648;28;20064;-73
2023/11/23 12:15:15;;;;;;;59.90;38.90;;;10.40;99.90;;;;;;5088110;28;20113;-73
2023/11/23 12:17:50;;;;;;;56.50;36.70;;;10.40;99.90;;;;;;5087721;28;20024;-74
2023/11/23 12:20:16;;;;;;;61.95;38.72;;;10.40;99.90;;;;;;5086438;28;20032;-73
2023/11/23 12:22:41;;;;;;;61.45;39.67;;;10.40;99.90;;;;;;5085108;28;20062;-74
2023/11/23 12:25:09;;;;;;;56.00;38.78;;;10.50;99.90;;;;;;5087921;28;20024;-74
2023/11/23 12:27:34;;;;;;;60.78;38.50;;;10.50;99.90;;;;;;5087787;28;20713;-74
2023/11/23 12:30:00;;;;;;;53.35;37.45;;;10.50;99.90;;;;;;5085550;28;20032;-74